Ama, Louisiana
Current Conditions -  °F | °C
As of 9:53 PM on Saturday 25 Oct 2014 (Local Time) from KMSY Reporting Station
Clear Clear  
Wind Chill: 65°   Ceiling: Unl
Heat Index: 65°   Visibility: 10mi
Dew Point: 55°   Wind: 6mph
Humidity: 70%   Direction: 290°WNW
Pressure: 30.09"   Gusts: NA
Location:  29.95°N, 90.3°W
Report Text: KMSY 260253Z 29005KT 10SM CLR 18/13 A3009 RMK AO2 SLP192 T01830128 51009
Loading
Personal Weather Stations






























Interactive Weather Map New forecast layout! Learn more

10-Day Weather Forecast

Advertisements
Track Severe Weather on mobile